sensor_id;sensor_type;location;lat;lon;timestamp;temperature;humidity
40848;DHT22;26570;50.962;5.340;2022-07-12T00:00:08;15.90;99.90
40848;DHT22;26570;50.962;5.340;2022-07-12T00:02:53;15.90;99.90
40848;DHT22;26570;50.962;5.340;2022-07-12T00:05:38;15.80;99.90
40848;DHT22;26570;50.962;5.340;2022-07-12T00:08:23;15.90;99.90
40848;DHT22;26570;50.962;5.340;2022-07-12T00:11:09;15.70;99.90
40848;DHT22;26570;50.962;5.340;2022-07-12T00:13:53;15.80;99.90
40848;DHT22;26570;50.962;5.340;2022-07-12T00:16:40;15.70;99.90
40848;DHT22;26570;50.962;5.340;2022-07-12T00:19:25;15.70;99.90
40848;DHT22;26570;50.962;5.340;2022-07-12T00:22:11;15.70;99.90
40848;DHT22;26570;50.962;5.340;2022-07-12T00:24:56;15.60;99.90
40848;DHT22;26570;50.962;5.340;2022-07-12T00:27:42;15.60;99.90
40848;DHT22;26570;50.962;5.340;2022-07-12T00:30:27;15.60;99.90
40848;DHT22;26570;50.962;5.340;2022-07-12T00:33:12;15.60;99.90
40848;DHT22;26570;50.962;5.340;2022-07-12T00:35:57;15.50;99.90
40848;DHT22;26570;50.962;5.340;2022-07-12T00:38:42;15.50;99.90
40848;DHT22;26570;50.962;5.340;2022-07-12T00:41:30;15.40;99.90
40848;DHT22;26570;50.962;5.340;2022-07-12T00:44:15;15.40;99.90
40848;DHT22;26570;50.962;5.340;2022-07-12T00:47:02;15.30;99.90
40848;DHT22;26570;50.962;5.340;2022-07-12T00:49:47;15.30;99.90
40848;DHT22;26570;50.962;5.340;2022-07-12T00:52:31;15.30;99.90
40848;DHT22;26570;50.962;5.340;2022-07-12T00:55:18;15.20;99.90
40848;DHT22;26570;50.962;5.340;2022-07-12T00:58:04;15.20;99.90
40848;DHT22;26570;50.962;5.340;2022-07-12T01:00:50;15.10;99.90
40848;DHT22;26570;50.962;5.340;2022-07-12T01:03:35;15.00;99.90
40848;DHT22;26570;50.962;5.340;2022-07-12T01:06:21;15.10;99.90
40848;DHT22;26570;50.962;5.340;2022-07-12T01:09:06;15.00;99.90
40848;DHT22;26570;50.962;5.340;2022-07-12T01:11:52;15.00;99.90
40848;DHT22;26570;50.962;5.340;2022-07-12T01:14:38;15.00;99.90
40848;DHT22;26570;50.962;5.340;2022-07-12T01:17:26;15.00;99.90
40848;DHT22;26570;50.962;5.340;2022-07-12T01:20:11;14.90;99.90
40848;DHT22;26570;50.962;5.340;2022-07-12T01:22:59;14.90;99.90
40848;DHT22;26570;50.962;5.340;2022-07-12T01:25:44;14.70;99.90
40848;DHT22;26570;50.962;5.340;2022-07-12T01:28:29;14.70;99.90
40848;DHT22;26570;50.962;5.340;2022-07-12T01:31:14;14.70;99.90
40848;DHT22;26570;50.962;5.340;2022-07-12T01:33:59;14.60;99.90
40848;DHT22;26570;50.962;5.340;2022-07-12T01:36:44;14.60;99.90
40848;DHT22;26570;50.962;5.340;2022-07-12T01:39:30;14.50;99.90
40848;DHT22;26570;50.962;5.340;2022-07-12T01:42:15;14.50;99.90
40848;DHT22;26570;50.962;5.340;2022-07-12T01:45:01;14.40;99.90
40848;DHT22;26570;50.962;5.340;2022-07-12T01:47:46;14.50;99.90
40848;DHT22;26570;50.962;5.340;2022-07-12T01:50:31;14.50;99.90
40848;DHT22;26570;50.962;5.340;2022-07-12T01:53:16;14.40;99.90
40848;DHT22;26570;50.962;5.340;2022-07-12T01:56:02;14.40;99.90
40848;DHT22;26570;50.962;5.340;2022-07-12T01:58:47;14.30;99.90
40848;DHT22;26570;50.962;5.340;2022-07-12T02:01:32;14.30;99.90
40848;DHT22;26570;50.962;5.340;2022-07-12T02:04:18;14.30;99.90
40848;DHT22;26570;50.962;5.340;2022-07-12T02:07:04;14.20;99.90
40848;DHT22;26570;50.962;5.340;2022-07-12T02:09:49;14.10;99.90
40848;DHT22;26570;50.962;5.340;2022-07-12T02:12:35;14.10;99.90
40848;DHT22;26570;50.962;5.340;2022-07-12T02:15:25;14.10;99.90
40848;DHT22;26570;50.962;5.340;2022-07-12T02:18:10;14.10;99.90
40848;DHT22;26570;50.962;5.340;2022-07-12T02:20:55;14.00;99.90
40848;DHT22;26570;50.962;5.340;2022-07-12T02:23:41;14.00;99.90
40848;DHT22;26570;50.962;5.340;2022-07-12T02:26:27;13.90;99.90
40848;DHT22;26570;50.962;5.340;2022-07-12T02:29:12;13.90;99.90
40848;DHT22;26570;50.962;5.340;2022-07-12T02:31:57;13.90;99.90
40848;DHT22;26570;50.962;5.340;2022-07-12T02:34:42;13.80;99.90
40848;DHT22;26570;50.962;5.340;2022-07-12T02:37:26;13.80;99.90
40848;DHT22;26570;50.962;5.340;2022-07-12T02:40:11;13.80;99.90
40848;DHT22;26570;50.962;5.340;2022-07-12T02:43:14;13.80;99.90
40848;DHT22;26570;50.962;5.340;2022-07-12T02:46:05;13.70;99.90
40848;DHT22;26570;50.962;5.340;2022-07-12T02:48:50;13.70;99.90
40848;DHT22;26570;50.962;5.340;2022-07-12T02:51:35;13.70;99.90
40848;DHT22;26570;50.962;5.340;2022-07-12T02:54:20;13.80;99.90
40848;DHT22;26570;50.962;5.340;2022-07-12T02:57:05;13.70;99.90
40848;DHT22;26570;50.962;5.340;2022-07-12T02:59:50;13.70;99.90
40848;DHT22;26570;50.962;5.340;2022-07-12T03:02:35;13.60;99.90
40848;DHT22;26570;50.962;5.340;2022-07-12T03:05:20;13.60;99.90
40848;DHT22;26570;50.962;5.340;2022-07-12T03:08:07;13.60;99.90
40848;DHT22;26570;50.962;5.340;2022-07-12T03:13:33;13.70;99.90
40848;DHT22;26570;50.962;5.340;2022-07-12T03:16:17;13.70;99.90
40848;DHT22;26570;50.962;5.340;2022-07-12T03:19:02;13.60;99.90
40848;DHT22;26570;50.962;5.340;2022-07-12T03:21:46;13.60;99.90
40848;DHT22;26570;50.962;5.340;2022-07-12T03:24:31;13.60;99.90
40848;DHT22;26570;50.962;5.340;2022-07-12T03:27:15;13.50;99.90
40848;DHT22;26570;50.962;5.340;2022-07-12T03:30:00;13.40;99.90
40848;DHT22;26570;50.962;5.340;2022-07-12T03:32:46;13.40;99.90
40848;DHT22;26570;50.962;5.340;2022-07-12T03:35:31;13.40;99.90
40848;DHT22;26570;50.962;5.340;2022-07-12T03:38:15;13.40;99.90
40848;DHT22;26570;50.962;5.340;2022-07-12T03:41:00;13.30;99.90
40848;DHT22;26570;50.962;5.340;2022-07-12T03:43:45;13.30;99.90
40848;DHT22;26570;50.962;5.340;2022-07-12T03:46:30;13.30;99.90
40848;DHT22;26570;50.962;5.340;2022-07-12T03:49:17;13.30;99.90
40848;DHT22;26570;50.962;5.340;2022-07-12T03:52:02;13.40;99.90
40848;DHT22;26570;50.962;5.340;2022-07-12T03:54:47;13.40;99.90
40848;DHT22;26570;50.962;5.340;2022-07-12T03:57:31;13.30;99.90
40848;DHT22;26570;50.962;5.340;2022-07-12T04:00:16;13.40;99.90
40848;DHT22;26570;50.962;5.340;2022-07-12T04:03:00;13.40;99.90
40848;DHT22;26570;50.962;5.340;2022-07-12T04:05:45;13.40;99.90
40848;DHT22;26570;50.962;5.340;2022-07-12T04:08:29;13.40;99.90
40848;DHT22;26570;50.962;5.340;2022-07-12T04:11:13;13.50;99.90
40848;DHT22;26570;50.962;5.340;2022-07-12T04:13:58;13.40;99.90
40848;DHT22;26570;50.962;5.340;2022-07-12T04:16:42;13.60;99.90
40848;DHT22;26570;50.962;5.340;2022-07-12T04:19:28;13.50;99.90
40848;DHT22;26570;50.962;5.340;2022-07-12T04:22:12;13.50;99.90
40848;DHT22;26570;50.962;5.340;2022-07-12T04:24:57;13.50;99.90
40848;DHT22;26570;50.962;5.340;2022-07-12T04:27:41;13.50;99.90
40848;DHT22;26570;50.962;5.340;2022-07-12T04:30:26;13.60;99.90
40848;DHT22;26570;50.962;5.340;2022-07-12T04:33:14;13.60;99.90
40848;DHT22;26570;50.962;5.340;2022-07-12T04:35:58;13.60;99.90
40848;DHT22;26570;50.962;5.340;2022-07-12T04:38:43;13.60;99.90
40848;DHT22;26570;50.962;5.340;2022-07-12T04:41:27;13.70;99.90
40848;DHT22;26570;50.962;5.340;2022-07-12T04:44:11;13.70;99.90
40848;DHT22;26570;50.962;5.340;2022-07-12T04:46:56;13.80;99.90
40848;DHT22;26570;50.962;5.340;2022-07-12T04:49:41;14.00;99.90
40848;DHT22;26570;50.962;5.340;2022-07-12T04:52:25;14.00;99.90
40848;DHT22;26570;50.962;5.340;2022-07-12T04:55:10;14.20;99.90
40848;DHT22;26570;50.962;5.340;2022-07-12T04:57:55;14.30;99.90
40848;DHT22;26570;50.962;5.340;2022-07-12T05:00:41;14.40;99.90
40848;DHT22;26570;50.962;5.340;2022-07-12T05:03:25;14.50;99.90
40848;DHT22;26570;50.962;5.340;2022-07-12T05:06:10;14.60;99.90
40848;DHT22;26570;50.962;5.340;2022-07-12T05:08:55;14.80;99.90
40848;DHT22;26570;50.962;5.340;2022-07-12T05:11:40;14.90;99.90
40848;DHT22;26570;50.962;5.340;2022-07-12T05:14:25;15.10;99.90
40848;DHT22;26570;50.962;5.340;2022-07-12T05:17:09;15.20;99.90
40848;DHT22;26570;50.962;5.340;2022-07-12T05:19:54;15.30;99.90
40848;DHT22;26570;50.962;5.340;2022-07-12T05:22:39;15.40;99.90
40848;DHT22;26570;50.962;5.340;2022-07-12T05:25:25;15.50;99.90
40848;DHT22;26570;50.962;5.340;2022-07-12T05:28:09;15.70;99.90
40848;DHT22;26570;50.962;5.340;2022-07-12T05:30:54;15.80;99.90
40848;DHT22;26570;50.962;5.340;2022-07-12T05:33:39;15.90;99.90
40848;DHT22;26570;50.962;5.340;2022-07-12T05:36:23;16.10;99.90
40848;DHT22;26570;50.962;5.340;2022-07-12T05:39:08;16.50;99.90
40848;DHT22;26570;50.962;5.340;2022-07-12T05:41:53;16.70;99.90
40848;DHT22;26570;50.962;5.340;2022-07-12T05:44:37;17.00;99.90
40848;DHT22;26570;50.962;5.340;2022-07-12T05:47:21;17.10;99.90
40848;DHT22;26570;50.962;5.340;2022-07-12T05:50:06;17.20;99.90
40848;DHT22;26570;50.962;5.340;2022-07-12T05:52:51;17.40;99.90
40848;DHT22;26570;50.962;5.340;2022-07-12T05:55:54;17.70;99.90
40848;DHT22;26570;50.962;5.340;2022-07-12T05:58:39;17.90;99.90
40848;DHT22;26570;50.962;5.340;2022-07-12T06:01:23;18.20;99.90
40848;DHT22;26570;50.962;5.340;2022-07-12T06:04:08;18.50;99.90
40848;DHT22;26570;50.962;5.340;2022-07-12T06:06:52;19.30;99.90
40848;DHT22;26570;50.962;5.340;2022-07-12T06:09:37;20.20;99.90
40848;DHT22;26570;50.962;5.340;2022-07-12T06:12:21;21.20;99.90
40848;DHT22;26570;50.962;5.340;2022-07-12T06:15:06;22.00;99.90
40848;DHT22;26570;50.962;5.340;2022-07-12T06:17:51;23.50;99.90
40848;DHT22;26570;50.962;5.340;2022-07-12T06:20:35;24.40;99.90
40848;DHT22;26570;50.962;5.340;2022-07-12T06:23:20;24.80;99.90
40848;DHT22;26570;50.962;5.340;2022-07-12T06:26:04;25.00;99.90
40848;DHT22;26570;50.962;5.340;2022-07-12T06:28:49;25.20;99.90
40848;DHT22;26570;50.962;5.340;2022-07-12T06:31:36;26.00;99.90
40848;DHT22;26570;50.962;5.340;2022-07-12T06:34:21;27.10;99.10
40848;DHT22;26570;50.962;5.340;2022-07-12T06:37:06;28.40;96.90
40848;DHT22;26570;50.962;5.340;2022-07-12T06:39:53;29.60;95.30
40848;DHT22;26570;50.962;5.340;2022-07-12T06:42:37;30.00;93.70
40848;DHT22;26570;50.962;5.340;2022-07-12T06:45:22;29.90;93.10
40848;DHT22;26570;50.962;5.340;2022-07-12T06:48:07;29.50;92.50
40848;DHT22;26570;50.962;5.340;2022-07-12T06:50:51;29.70;93.50
40848;DHT22;26570;50.962;5.340;2022-07-12T06:53:36;30.00;93.10
40848;DHT22;26570;50.962;5.340;2022-07-12T06:56:20;30.60;91.80
40848;DHT22;26570;50.962;5.340;2022-07-12T06:59:05;30.70;91.10
40848;DHT22;26570;50.962;5.340;2022-07-12T07:01:50;30.10;91.20
40848;DHT22;26570;50.962;5.340;2022-07-12T07:04:36;29.30;91.50
40848;DHT22;26570;50.962;5.340;2022-07-12T07:07:21;29.00;92.00
40848;DHT22;26570;50.962;5.340;2022-07-12T07:10:05;29.00;93.00
40848;DHT22;26570;50.962;5.340;2022-07-12T07:12:50;29.10;92.00
40848;DHT22;26570;50.962;5.340;2022-07-12T07:15:35;29.10;92.80
40848;DHT22;26570;50.962;5.340;2022-07-12T07:18:19;29.20;92.30
40848;DHT22;26570;50.962;5.340;2022-07-12T07:21:05;29.50;91.70
40848;DHT22;26570;50.962;5.340;2022-07-12T07:23:50;30.20;92.00
40848;DHT22;26570;50.962;5.340;2022-07-12T07:26:35;30.80;90.60
40848;DHT22;26570;50.962;5.340;2022-07-12T07:29:19;31.10;89.90
40848;DHT22;26570;50.962;5.340;2022-07-12T07:32:23;31.80;89.40
40848;DHT22;26570;50.962;5.340;2022-07-12T07:35:08;32.30;87.10
40848;DHT22;26570;50.962;5.340;2022-07-12T07:37:52;32.10;86.30
40848;DHT22;26570;50.962;5.340;2022-07-12T07:40:37;32.30;86.60
40848;DHT22;26570;50.962;5.340;2022-07-12T07:43:22;32.90;85.70
40848;DHT22;26570;50.962;5.340;2022-07-12T07:46:06;33.50;85.20
40848;DHT22;26570;50.962;5.340;2022-07-12T07:48:51;33.50;84.00
40848;DHT22;26570;50.962;5.340;2022-07-12T07:51:35;33.70;84.20
40848;DHT22;26570;50.962;5.340;2022-07-12T07:54:20;33.70;83.10
40848;DHT22;26570;50.962;5.340;2022-07-12T07:57:05;33.80;83.10
40848;DHT22;26570;50.962;5.340;2022-07-12T07:59:49;34.20;82.40
40848;DHT22;26570;50.962;5.340;2022-07-12T08:02:34;34.50;82.10
40848;DHT22;26570;50.962;5.340;2022-07-12T08:05:19;34.90;80.80
40848;DHT22;26570;50.962;5.340;2022-07-12T08:08:03;34.70;79.50
40848;DHT22;26570;50.962;5.340;2022-07-12T08:10:49;34.70;79.50
40848;DHT22;26570;50.962;5.340;2022-07-12T08:13:34;34.60;78.80
40848;DHT22;26570;50.962;5.340;2022-07-12T08:16:20;34.70;78.60
40848;DHT22;26570;50.962;5.340;2022-07-12T08:19:05;34.50;78.10
40848;DHT22;26570;50.962;5.340;2022-07-12T08:21:50;34.50;78.60
40848;DHT22;26570;50.962;5.340;2022-07-12T08:24:34;34.30;78.60
40848;DHT22;26570;50.962;5.340;2022-07-12T08:27:19;34.80;78.00
40848;DHT22;26570;50.962;5.340;2022-07-12T08:30:03;35.00;77.60
40848;DHT22;26570;50.962;5.340;2022-07-12T08:32:48;35.30;75.90
40848;DHT22;26570;50.962;5.340;2022-07-12T08:35:33;35.30;75.60
40848;DHT22;26570;50.962;5.340;2022-07-12T08:38:17;35.20;76.30
40848;DHT22;26570;50.962;5.340;2022-07-12T08:41:05;35.20;76.20
40848;DHT22;26570;50.962;5.340;2022-07-12T08:43:50;34.80;75.60
40848;DHT22;26570;50.962;5.340;2022-07-12T08:46:36;34.60;75.30
40848;DHT22;26570;50.962;5.340;2022-07-12T08:49:20;34.40;75.30
40848;DHT22;26570;50.962;5.340;2022-07-12T08:52:25;34.20;74.70
40848;DHT22;26570;50.962;5.340;2022-07-12T08:58:15;33.90;74.90
40848;DHT22;26570;50.962;5.340;2022-07-12T09:01:00;32.90;76.50
40848;DHT22;26570;50.962;5.340;2022-07-12T09:03:47;32.70;77.10
40848;DHT22;26570;50.962;5.340;2022-07-12T09:06:32;32.40;78.10
40848;DHT22;26570;50.962;5.340;2022-07-12T09:09:32;32.10;78.80
40848;DHT22;26570;50.962;5.340;2022-07-12T09:12:23;32.10;78.20
40848;DHT22;26570;50.962;5.340;2022-07-12T09:18:05;33.00;78.20
40848;DHT22;26570;50.962;5.340;2022-07-12T09:20:58;33.50;77.40
40848;DHT22;26570;50.962;5.340;2022-07-12T09:23:53;33.80;76.70
40848;DHT22;26570;50.962;5.340;2022-07-12T09:26:38;33.50;77.50
40848;DHT22;26570;50.962;5.340;2022-07-12T09:29:22;33.60;75.90
40848;DHT22;26570;50.962;5.340;2022-07-12T09:32:07;33.70;76.60
40848;DHT22;26570;50.962;5.340;2022-07-12T09:35:11;33.30;75.50
40848;DHT22;26570;50.962;5.340;2022-07-12T09:38:14;33.60;75.80
40848;DHT22;26570;50.962;5.340;2022-07-12T09:40:59;33.80;75.70
40848;DHT22;26570;50.962;5.340;2022-07-12T09:43:45;33.40;76.30
40848;DHT22;26570;50.962;5.340;2022-07-12T09:46:33;33.30;77.00
40848;DHT22;26570;50.962;5.340;2022-07-12T09:49:19;33.30;77.20
40848;DHT22;26570;50.962;5.340;2022-07-12T09:52:04;33.20;75.90
40848;DHT22;26570;50.962;5.340;2022-07-12T09:54:51;33.00;76.40
40848;DHT22;26570;50.962;5.340;2022-07-12T09:57:39;32.60;77.60
40848;DHT22;26570;50.962;5.340;2022-07-12T10:00:24;32.50;77.30
40848;DHT22;26570;50.962;5.340;2022-07-12T10:03:12;32.50;77.40
40848;DHT22;26570;50.962;5.340;2022-07-12T10:06:00;32.70;77.40
40848;DHT22;26570;50.962;5.340;2022-07-12T10:08:46;32.80;76.20
40848;DHT22;26570;50.962;5.340;2022-07-12T10:11:31;32.80;75.20
40848;DHT22;26570;50.962;5.340;2022-07-12T10:14:17;32.40;76.60
40848;DHT22;26570;50.962;5.340;2022-07-12T10:17:03;32.50;77.30
40848;DHT22;26570;50.962;5.340;2022-07-12T10:20:28;32.60;75.40
40848;DHT22;26570;50.962;5.340;2022-07-12T10:29:03;32.50;77.70
40848;DHT22;26570;50.962;5.340;2022-07-12T10:31:49;32.60;76.70
40848;DHT22;26570;50.962;5.340;2022-07-12T10:34:33;32.50;77.20
40848;DHT22;26570;50.962;5.340;2022-07-12T10:37:20;32.60;76.50
40848;DHT22;26570;50.962;5.340;2022-07-12T10:45:48;32.40;77.40
40848;DHT22;26570;50.962;5.340;2022-07-12T10:48:32;32.40;77.00
40848;DHT22;26570;50.962;5.340;2022-07-12T10:51:18;32.40;77.40
40848;DHT22;26570;50.962;5.340;2022-07-12T10:54:32;32.40;78.10
40848;DHT22;26570;50.962;5.340;2022-07-12T10:57:43;32.60;78.30
40848;DHT22;26570;50.962;5.340;2022-07-12T11:00:29;32.90;77.30
40848;DHT22;26570;50.962;5.340;2022-07-12T11:03:15;33.00;77.20
40848;DHT22;26570;50.962;5.340;2022-07-12T11:06:05;33.00;75.90
40848;DHT22;26570;50.962;5.340;2022-07-12T11:08:57;33.10;76.60
40848;DHT22;26570;50.962;5.340;2022-07-12T11:11:45;33.20;77.20
40848;DHT22;26570;50.962;5.340;2022-07-12T11:14:33;33.20;76.60
40848;DHT22;26570;50.962;5.340;2022-07-12T11:17:29;33.30;75.30
40848;DHT22;26570;50.962;5.340;2022-07-12T11:20:15;33.30;73.50
40848;DHT22;26570;50.962;5.340;2022-07-12T11:22:59;33.30;74.90
40848;DHT22;26570;50.962;5.340;2022-07-12T11:25:44;33.60;73.90
40848;DHT22;26570;50.962;5.340;2022-07-12T11:28:30;33.90;75.10
40848;DHT22;26570;50.962;5.340;2022-07-12T11:31:16;34.10;73.70
40848;DHT22;26570;50.962;5.340;2022-07-12T11:34:02;33.70;72.60
40848;DHT22;26570;50.962;5.340;2022-07-12T11:36:47;33.50;74.40
40848;DHT22;26570;50.962;5.340;2022-07-12T11:39:36;33.50;74.00
40848;DHT22;26570;50.962;5.340;2022-07-12T11:42:21;33.90;74.80
40848;DHT22;26570;50.962;5.340;2022-07-12T11:45:06;33.90;72.50
40848;DHT22;26570;50.962;5.340;2022-07-12T11:47:51;34.30;75.00
40848;DHT22;26570;50.962;5.340;2022-07-12T11:50:36;34.60;72.40
40848;DHT22;26570;50.962;5.340;2022-07-12T11:53:25;34.70;71.80
40848;DHT22;26570;50.962;5.340;2022-07-12T11:56:10;34.90;71.70
40848;DHT22;26570;50.962;5.340;2022-07-12T11:58:56;35.00;72.10
40848;DHT22;26570;50.962;5.340;2022-07-12T12:01:41;34.90;71.90
40848;DHT22;26570;50.962;5.340;2022-07-12T12:04:26;35.10;72.20
40848;DHT22;26570;50.962;5.340;2022-07-12T12:07:10;35.20;72.70
40848;DHT22;26570;50.962;5.340;2022-07-12T12:10:11;35.30;72.10
40848;DHT22;26570;50.962;5.340;2022-07-12T12:13:00;35.50;71.90
40848;DHT22;26570;50.962;5.340;2022-07-12T12:16:05;35.60;70.80
40848;DHT22;26570;50.962;5.340;2022-07-12T12:18:50;36.00;68.10
40848;DHT22;26570;50.962;5.340;2022-07-12T12:21:34;35.30;70.30
40848;DHT22;26570;50.962;5.340;2022-07-12T12:24:19;35.10;70.80
40848;DHT22;26570;50.962;5.340;2022-07-12T12:27:03;34.90;71.70
40848;DHT22;26570;50.962;5.340;2022-07-12T12:29:49;34.70;71.60
40848;DHT22;26570;50.962;5.340;2022-07-12T12:33:03;34.70;70.60
40848;DHT22;26570;50.962;5.340;2022-07-12T12:35:50;35.00;70.70
40848;DHT22;26570;50.962;5.340;2022-07-12T12:38:35;35.20;69.90
40848;DHT22;26570;50.962;5.340;2022-07-12T12:41:21;35.20;69.30
40848;DHT22;26570;50.962;5.340;2022-07-12T12:44:11;35.50;68.10
40848;DHT22;26570;50.962;5.340;2022-07-12T12:47:01;35.90;68.20
40848;DHT22;26570;50.962;5.340;2022-07-12T12:50:05;35.30;69.70
40848;DHT22;26570;50.962;5.340;2022-07-12T12:52:49;35.20;69.80
40848;DHT22;26570;50.962;5.340;2022-07-12T12:55:35;35.60;70.00
40848;DHT22;26570;50.962;5.340;2022-07-12T12:58:24;35.60;69.30
40848;DHT22;26570;50.962;5.340;2022-07-12T13:01:09;35.40;69.20
40848;DHT22;26570;50.962;5.340;2022-07-12T13:03:54;35.40;69.00
40848;DHT22;26570;50.962;5.340;2022-07-12T13:06:38;35.20;70.30
40848;DHT22;26570;50.962;5.340;2022-07-12T13:09:23;35.10;68.90
40848;DHT22;26570;50.962;5.340;2022-07-12T13:12:08;35.00;68.90
40848;DHT22;26570;50.962;5.340;2022-07-12T13:14:53;34.60;69.50
40848;DHT22;26570;50.962;5.340;2022-07-12T13:17:37;34.60;70.90
40848;DHT22;26570;50.962;5.340;2022-07-12T13:20:23;34.60;70.80
40848;DHT22;26570;50.962;5.340;2022-07-12T13:23:08;34.90;70.70
40848;DHT22;26570;50.962;5.340;2022-07-12T13:25:53;34.90;69.50
40848;DHT22;26570;50.962;5.340;2022-07-12T13:28:37;34.80;69.90
40848;DHT22;26570;50.962;5.340;2022-07-12T13:31:22;34.70;70.50
40848;DHT22;26570;50.962;5.340;2022-07-12T13:34:06;34.80;69.10
40848;DHT22;26570;50.962;5.340;2022-07-12T13:36:51;34.80;69.00
40848;DHT22;26570;50.962;5.340;2022-07-12T13:39:36;35.00;67.90
40848;DHT22;26570;50.962;5.340;2022-07-12T13:45:25;34.60;68.90
40848;DHT22;26570;50.962;5.340;2022-07-12T13:48:10;34.50;69.30
40848;DHT22;26570;50.962;5.340;2022-07-12T13:50:55;34.60;69.30
40848;DHT22;26570;50.962;5.340;2022-07-12T13:53:39;34.50;67.80
40848;DHT22;26570;50.962;5.340;2022-07-12T13:56:24;34.30;70.10
40848;DHT22;26570;50.962;5.340;2022-07-12T13:59:08;34.60;69.50
40848;DHT22;26570;50.962;5.340;2022-07-12T14:01:53;34.60;69.60
40848;DHT22;26570;50.962;5.340;2022-07-12T14:04:38;34.60;67.60
40848;DHT22;26570;50.962;5.340;2022-07-12T14:07:23;34.40;68.50
40848;DHT22;26570;50.962;5.340;2022-07-12T14:10:09;34.60;68.50
40848;DHT22;26570;50.962;5.340;2022-07-12T14:12:54;34.50;69.50
40848;DHT22;26570;50.962;5.340;2022-07-12T14:15:38;34.50;68.60
40848;DHT22;26570;50.962;5.340;2022-07-12T14:18:24;34.40;67.60
40848;DHT22;26570;50.962;5.340;2022-07-12T14:21:08;34.10;67.50
40848;DHT22;26570;50.962;5.340;2022-07-12T14:23:54;34.00;68.10
40848;DHT22;26570;50.962;5.340;2022-07-12T14:26:38;34.00;69.00
40848;DHT22;26570;50.962;5.340;2022-07-12T14:29:23;33.90;68.80
40848;DHT22;26570;50.962;5.340;2022-07-12T14:32:07;33.80;68.50
40848;DHT22;26570;50.962;5.340;2022-07-12T14:34:52;33.90;68.70
40848;DHT22;26570;50.962;5.340;2022-07-12T14:37:37;34.10;65.70
40848;DHT22;26570;50.962;5.340;2022-07-12T14:40:21;33.90;65.10
40848;DHT22;26570;50.962;5.340;2022-07-12T14:43:07;34.00;64.70
40848;DHT22;26570;50.962;5.340;2022-07-12T14:45:51;34.00;66.20
40848;DHT22;26570;50.962;5.340;2022-07-12T14:48:36;33.90;67.20
40848;DHT22;26570;50.962;5.340;2022-07-12T14:51:20;34.00;68.30
40848;DHT22;26570;50.962;5.340;2022-07-12T14:54:05;34.40;65.60
40848;DHT22;26570;50.962;5.340;2022-07-12T14:56:50;34.50;64.70
40848;DHT22;26570;50.962;5.340;2022-07-12T14:59:35;34.60;65.70
40848;DHT22;26570;50.962;5.340;2022-07-12T15:02:19;34.90;66.40
40848;DHT22;26570;50.962;5.340;2022-07-12T15:05:04;35.10;64.70
40848;DHT22;26570;50.962;5.340;2022-07-12T15:07:50;35.20;63.40
40848;DHT22;26570;50.962;5.340;2022-07-12T15:10:36;35.30;64.80
40848;DHT22;26570;50.962;5.340;2022-07-12T15:13:21;35.30;64.50
40848;DHT22;26570;50.962;5.340;2022-07-12T15:16:06;35.60;64.40
40848;DHT22;26570;50.962;5.340;2022-07-12T15:18:50;35.80;65.40
40848;DHT22;26570;50.962;5.340;2022-07-12T15:21:35;35.70;66.20
40848;DHT22;26570;50.962;5.340;2022-07-12T15:24:20;35.30;64.00
40848;DHT22;26570;50.962;5.340;2022-07-12T15:27:05;35.30;63.90
40848;DHT22;26570;50.962;5.340;2022-07-12T15:29:53;35.20;66.10
40848;DHT22;26570;50.962;5.340;2022-07-12T15:32:37;35.20;63.60
40848;DHT22;26570;50.962;5.340;2022-07-12T15:35:22;35.10;63.20
40848;DHT22;26570;50.962;5.340;2022-07-12T15:38:06;35.10;62.60
40848;DHT22;26570;50.962;5.340;2022-07-12T15:40:51;35.10;64.10
40848;DHT22;26570;50.962;5.340;2022-07-12T15:43:37;35.20;63.60
40848;DHT22;26570;50.962;5.340;2022-07-12T15:46:22;35.30;65.10
40848;DHT22;26570;50.962;5.340;2022-07-12T15:49:07;35.00;63.10
40848;DHT22;26570;50.962;5.340;2022-07-12T15:51:53;35.10;64.20
40848;DHT22;26570;50.962;5.340;2022-07-12T15:54:57;35.00;64.50
40848;DHT22;26570;50.962;5.340;2022-07-12T15:57:41;34.90;66.20
40848;DHT22;26570;50.962;5.340;2022-07-12T16:00:26;34.90;66.10
40848;DHT22;26570;50.962;5.340;2022-07-12T16:03:11;35.00;66.60
40848;DHT22;26570;50.962;5.340;2022-07-12T16:05:57;35.00;64.90
40848;DHT22;26570;50.962;5.340;2022-07-12T16:08:42;35.00;65.40
40848;DHT22;26570;50.962;5.340;2022-07-12T16:11:30;35.00;65.80
40848;DHT22;26570;50.962;5.340;2022-07-12T16:14:15;34.80;64.80
40848;DHT22;26570;50.962;5.340;2022-07-12T16:17:01;34.60;66.10
40848;DHT22;26570;50.962;5.340;2022-07-12T16:19:46;34.30;67.50
40848;DHT22;26570;50.962;5.340;2022-07-12T16:22:31;34.20;68.20
40848;DHT22;26570;50.962;5.340;2022-07-12T16:25:17;34.10;69.00
40848;DHT22;26570;50.962;5.340;2022-07-12T16:28:02;33.90;69.10
40848;DHT22;26570;50.962;5.340;2022-07-12T16:30:46;33.80;70.10
40848;DHT22;26570;50.962;5.340;2022-07-12T16:33:31;33.90;69.30
40848;DHT22;26570;50.962;5.340;2022-07-12T16:36:16;33.90;69.50
40848;DHT22;26570;50.962;5.340;2022-07-12T16:39:00;33.60;68.30
40848;DHT22;26570;50.962;5.340;2022-07-12T16:41:45;33.50;69.00
40848;DHT22;26570;50.962;5.340;2022-07-12T16:44:30;33.40;69.60
40848;DHT22;26570;50.962;5.340;2022-07-12T16:47:16;33.40;68.90
40848;DHT22;26570;50.962;5.340;2022-07-12T16:50:01;33.40;68.40
40848;DHT22;26570;50.962;5.340;2022-07-12T16:52:46;33.20;68.90
40848;DHT22;26570;50.962;5.340;2022-07-12T16:55:31;33.10;68.60
40848;DHT22;26570;50.962;5.340;2022-07-12T16:58:15;33.10;70.20
40848;DHT22;26570;50.962;5.340;2022-07-12T17:01:00;33.00;72.00
40848;DHT22;26570;50.962;5.340;2022-07-12T17:03:45;32.90;70.80
40848;DHT22;26570;50.962;5.340;2022-07-12T17:06:30;32.90;70.50
40848;DHT22;26570;50.962;5.340;2022-07-12T17:09:17;32.90;72.40
40848;DHT22;26570;50.962;5.340;2022-07-12T17:12:02;32.80;72.10
40848;DHT22;26570;50.962;5.340;2022-07-12T17:14:47;32.60;72.90
40848;DHT22;26570;50.962;5.340;2022-07-12T17:17:32;32.10;72.60
40848;DHT22;26570;50.962;5.340;2022-07-12T17:20:17;31.80;73.50
40848;DHT22;26570;50.962;5.340;2022-07-12T17:23:01;31.50;73.60
40848;DHT22;26570;50.962;5.340;2022-07-12T17:25:46;31.50;75.10
40848;DHT22;26570;50.962;5.340;2022-07-12T17:28:34;31.50;74.30
40848;DHT22;26570;50.962;5.340;2022-07-12T17:31:18;31.30;74.30
40848;DHT22;26570;50.962;5.340;2022-07-12T17:34:03;31.20;75.50
40848;DHT22;26570;50.962;5.340;2022-07-12T17:36:48;31.10;75.80
40848;DHT22;26570;50.962;5.340;2022-07-12T17:39:32;31.00;74.70
40848;DHT22;26570;50.962;5.340;2022-07-12T17:42:17;30.90;75.20
40848;DHT22;26570;50.962;5.340;2022-07-12T17:45:02;30.80;76.00
40848;DHT22;26570;50.962;5.340;2022-07-12T17:47:47;30.50;76.30
40848;DHT22;26570;50.962;5.340;2022-07-12T17:50:31;30.20;77.90